Sign-in with your pilot id or email, or register

ICAO: WADD Name / Country: Denpasar / Ngurah-Rai / Indonesia
Latitude: -8.75 Longitude: 115.167
Total Arrivals:
Strict Standards: Non-static method AirportData::getarrflights() should not be called statically, assuming $this from incompatible context in /var/www/customers/vh-7192/web/home/phpvms/core/templates/airport_info.tpl on line 18
1
Total Departures:
Strict Standards: Non-static method AirportData::getdeptflights() should not be called statically, assuming $this from incompatible context in /var/www/customers/vh-7192/web/home/phpvms/core/templates/airport_info.tpl on line 21
1
Latest Arrival: MTA5TT (WMKK-WADD) Tibor Berces Latest Departure: MTA5TT (WADD-YPDN) Tibor Berces
Metar: WADD 271000Z 14010KT 9999 FEW015 29/24 Q1010 NOSIG
More info

Charts for WADD


NOTAM


Warning: file_get_contents(http://api.vateud.net/notams/WADD.json): failed to open stream: Redirection limit reached, aborting in /var/www/customers/vh-7192/web/home/phpvms/core/common/NOTAMSData.class.php on line 18

Warning: Invalid argument supplied for foreach() in /var/www/customers/vh-7192/web/home/phpvms/core/common/NOTAMSData.class.php on line 22

Denpasar / Ngurah-Rai